sensor_id;sensor_type;location;lat;lon;timestamp;pressure;altitude;pressure_sealevel;temperature;humidity
54876;BME280;40764;48.472;8.166;2023-02-28T00:00:04;98763.25;;;-0.52;55.67
54876;BME280;40764;48.472;8.166;2023-02-28T00:06:10;98764.47;;;-0.62;56.06
54876;BME280;40764;48.472;8.166;2023-02-28T00:12:10;98760.94;;;-0.42;55.63
54876;BME280;40764;48.472;8.166;2023-02-28T00:18:11;98766.91;;;-0.40;55.72
54876;BME280;40764;48.472;8.166;2023-02-28T00:24:12;98760.16;;;-0.56;56.13
54876;BME280;40764;48.472;8.166;2023-02-28T00:30:15;98762.41;;;-0.53;56.20
54876;BME280;40764;48.472;8.166;2023-02-28T00:36:17;98758.69;;;-0.52;56.78
54876;BME280;40764;48.472;8.166;2023-02-28T00:42:17;98749.47;;;-0.18;55.20
54876;BME280;40764;48.472;8.166;2023-02-28T00:48:17;98740.91;;;-0.46;56.20
54876;BME280;40764;48.472;8.166;2023-02-28T00:54:18;98736.50;;;-0.34;56.19
54876;BME280;40764;48.472;8.166;2023-02-28T01:00:19;98742.06;;;-0.22;56.21
54876;BME280;40764;48.472;8.166;2023-02-28T01:06:19;98744.38;;;-0.39;57.00
54876;BME280;40764;48.472;8.166;2023-02-28T01:12:20;98745.59;;;-0.28;56.57
54876;BME280;40764;48.472;8.166;2023-02-28T01:18:21;98747.22;;;-0.21;56.52
54876;BME280;40764;48.472;8.166;2023-02-28T01:24:21;98746.00;;;-0.32;56.04
54876;BME280;40764;48.472;8.166;2023-02-28T01:30:22;98744.78;;;-0.36;56.88
54876;BME280;40764;48.472;8.166;2023-02-28T01:36:23;98745.38;;;-0.34;56.79
54876;BME280;40764;48.472;8.166;2023-02-28T01:42:24;98743.69;;;-0.15;56.69
54876;BME280;40764;48.472;8.166;2023-02-28T01:48:27;98738.69;;;-0.11;57.10
54876;BME280;40764;48.472;8.166;2023-02-28T01:54:33;98731.31;;;-0.22;56.97
54876;BME280;40764;48.472;8.166;2023-02-28T02:00:34;98745.72;;;-0.10;56.79
54876;BME280;40764;48.472;8.166;2023-02-28T02:06:42;98745.31;;;-0.14;56.91
54876;BME280;40764;48.472;8.166;2023-02-28T02:13:11;98739.81;;;-0.32;57.14
54876;BME280;40764;48.472;8.166;2023-02-28T02:25:31;98742.00;;;-0.09;56.96
54876;BME280;40764;48.472;8.166;2023-02-28T02:37:47;98729.41;;;-0.15;57.19
54876;BME280;40764;48.472;8.166;2023-02-28T02:44:01;98731.06;;;-0.14;58.02
54876;BME280;40764;48.472;8.166;2023-02-28T02:50:08;98727.63;;;-0.28;58.03
54876;BME280;40764;48.472;8.166;2023-02-28T02:56:13;98730.09;;;-0.26;58.47
54876;BME280;40764;48.472;8.166;2023-02-28T03:02:16;98729.28;;;-0.27;58.85
54876;BME280;40764;48.472;8.166;2023-02-28T03:08:17;98734.00;;;-0.29;58.99
54876;BME280;40764;48.472;8.166;2023-02-28T03:20:47;98722.47;;;-0.36;59.60
54876;BME280;40764;48.472;8.166;2023-02-28T03:26:56;98715.88;;;-0.40;59.86
54876;BME280;40764;48.472;8.166;2023-02-28T03:33:18;98709.63;;;-0.34;59.82
54876;BME280;40764;48.472;8.166;2023-02-28T03:39:28;98718.94;;;-0.37;59.80
54876;BME280;40764;48.472;8.166;2023-02-28T03:45:33;98720.25;;;-0.46;60.16
54876;BME280;40764;48.472;8.166;2023-02-28T03:51:38;98716.28;;;-0.43;60.47
54876;BME280;40764;48.472;8.166;2023-02-28T04:03:41;98717.13;;;-0.43;60.48
54876;BME280;40764;48.472;8.166;2023-02-28T04:09:41;98710.28;;;-0.39;60.66
54876;BME280;40764;48.472;8.166;2023-02-28T04:15:41;98711.78;;;-0.49;60.79
54876;BME280;40764;48.472;8.166;2023-02-28T04:21:45;98708.69;;;-0.53;61.19
54876;BME280;40764;48.472;8.166;2023-02-28T04:27:45;98722.22;;;-0.21;60.36
54876;BME280;40764;48.472;8.166;2023-02-28T04:33:46;98718.59;;;-0.47;61.00
54876;BME280;40764;48.472;8.166;2023-02-28T04:39:46;98716.28;;;-0.43;60.96
54876;BME280;40764;48.472;8.166;2023-02-28T04:45:46;98719.22;;;-0.58;61.65
54876;BME280;40764;48.472;8.166;2023-02-28T04:51:46;98718.88;;;-0.75;62.66
54876;BME280;40764;48.472;8.166;2023-02-28T04:57:47;98719.84;;;-0.49;61.99
54876;BME280;40764;48.472;8.166;2023-02-28T05:03:48;98735.53;;;-0.46;62.04
54876;BME280;40764;48.472;8.166;2023-02-28T05:09:49;98727.25;;;-0.45;62.17
54876;BME280;40764;48.472;8.166;2023-02-28T05:15:49;98726.16;;;-0.31;62.44
54876;BME280;40764;48.472;8.166;2023-02-28T05:21:53;98722.06;;;-0.40;62.37
54876;BME280;40764;48.472;8.166;2023-02-28T05:27:53;98725.97;;;-0.36;62.28
54876;BME280;40764;48.472;8.166;2023-02-28T05:33:54;98718.03;;;-0.11;62.29
54876;BME280;40764;48.472;8.166;2023-02-28T05:39:54;98726.78;;;-0.28;63.05
54876;BME280;40764;48.472;8.166;2023-02-28T05:45:54;98725.41;;;-0.51;64.00
54876;BME280;40764;48.472;8.166;2023-02-28T05:51:55;98717.97;;;-0.49;64.39
54876;BME280;40764;48.472;8.166;2023-02-28T05:57:55;98732.19;;;-0.42;64.87
54876;BME280;40764;48.472;8.166;2023-02-28T06:03:56;98729.56;;;-0.55;65.03
54876;BME280;40764;48.472;8.166;2023-02-28T06:09:56;98734.34;;;-0.57;65.04
54876;BME280;40764;48.472;8.166;2023-02-28T06:15:56;98739.59;;;-0.31;64.60
54876;BME280;40764;48.472;8.166;2023-02-28T06:22:00;98742.31;;;-0.37;64.81
54876;BME280;40764;48.472;8.166;2023-02-28T06:28:00;98756.59;;;0.08;63.39
54876;BME280;40764;48.472;8.166;2023-02-28T06:34:00;98759.34;;;0.02;63.50
54876;BME280;40764;48.472;8.166;2023-02-28T06:40:01;98764.94;;;-0.07;63.97
54876;BME280;40764;48.472;8.166;2023-02-28T06:46:03;98771.81;;;-0.31;64.50
54876;BME280;40764;48.472;8.166;2023-02-28T06:52:04;98779.63;;;-0.09;63.50
54876;BME280;40764;48.472;8.166;2023-02-28T06:58:04;98781.72;;;0.27;63.09
54876;BME280;40764;48.472;8.166;2023-02-28T07:04:14;98775.25;;;-0.04;63.83
54876;BME280;40764;48.472;8.166;2023-02-28T07:10:15;98782.75;;;0.26;63.16
54876;BME280;40764;48.472;8.166;2023-02-28T07:16:17;98788.91;;;0.40;62.67
54876;BME280;40764;48.472;8.166;2023-02-28T07:22:17;98787.78;;;0.16;63.34
54876;BME280;40764;48.472;8.166;2023-02-28T07:28:18;98796.59;;;0.36;62.64
54876;BME280;40764;48.472;8.166;2023-02-28T07:34:19;98794.94;;;0.67;62.12
54876;BME280;40764;48.472;8.166;2023-02-28T07:40:20;98801.00;;;0.55;62.67
54876;BME280;40764;48.472;8.166;2023-02-28T07:46:20;98793.16;;;0.54;62.81
54876;BME280;40764;48.472;8.166;2023-02-28T07:52:21;98786.53;;;0.88;61.93
54876;BME280;40764;48.472;8.166;2023-02-28T07:58:24;98791.34;;;0.48;62.63
54876;BME280;40764;48.472;8.166;2023-02-28T08:04:25;98791.94;;;0.81;62.94
54876;BME280;40764;48.472;8.166;2023-02-28T08:10:26;98805.78;;;0.85;62.35
54876;BME280;40764;48.472;8.166;2023-02-28T08:16:26;98816.72;;;1.15;62.26
54876;BME280;40764;48.472;8.166;2023-02-28T08:22:26;98814.84;;;1.22;61.46
54876;BME280;40764;48.472;8.166;2023-02-28T08:28:27;98817.09;;;1.25;60.95
54876;BME280;40764;48.472;8.166;2023-02-28T08:34:27;98813.72;;;1.05;62.40
54876;BME280;40764;48.472;8.166;2023-02-28T08:40:27;98820.38;;;0.71;62.65
54876;BME280;40764;48.472;8.166;2023-02-28T08:46:28;98823.81;;;0.84;62.38
54876;BME280;40764;48.472;8.166;2023-02-28T08:52:28;98824.63;;;0.85;62.42
54876;BME280;40764;48.472;8.166;2023-02-28T08:58:29;98831.94;;;0.78;62.65
54876;BME280;40764;48.472;8.166;2023-02-28T09:04:29;98818.72;;;1.01;62.21
54876;BME280;40764;48.472;8.166;2023-02-28T09:10:31;98832.78;;;1.03;62.13
54876;BME280;40764;48.472;8.166;2023-02-28T09:16:32;98835.41;;;1.16;62.03
54876;BME280;40764;48.472;8.166;2023-02-28T09:22:32;98837.16;;;1.29;61.83
54876;BME280;40764;48.472;8.166;2023-02-28T09:28:33;98838.56;;;1.07;62.32
54876;BME280;40764;48.472;8.166;2023-02-28T09:34:33;98842.50;;;1.04;62.46
54876;BME280;40764;48.472;8.166;2023-02-28T09:40:50;98848.13;;;1.03;62.71
54876;BME280;40764;48.472;8.166;2023-02-28T09:46:56;98843.72;;;1.08;62.26
54876;BME280;40764;48.472;8.166;2023-02-28T09:53:02;98837.94;;;1.05;61.69
54876;BME280;40764;48.472;8.166;2023-02-28T10:11:37;98854.34;;;1.53;60.62
54876;BME280;40764;48.472;8.166;2023-02-28T10:17:41;98855.97;;;1.79;59.75
54876;BME280;40764;48.472;8.166;2023-02-28T10:23:43;98864.53;;;1.69;60.43
54876;BME280;40764;48.472;8.166;2023-02-28T10:29:47;98863.72;;;1.69;60.28
54876;BME280;40764;48.472;8.166;2023-02-28T10:35:48;98861.13;;;1.99;59.83
54876;BME280;40764;48.472;8.166;2023-02-28T10:41:49;98852.75;;;2.43;58.74
54876;BME280;40764;48.472;8.166;2023-02-28T10:53:57;98862.50;;;2.08;59.13
54876;BME280;40764;48.472;8.166;2023-02-28T11:00:20;98868.34;;;2.41;58.45
54876;BME280;40764;48.472;8.166;2023-02-28T11:06:25;98872.63;;;2.79;58.39
54876;BME280;40764;48.472;8.166;2023-02-28T11:12:35;98867.34;;;2.54;57.95
54876;BME280;40764;48.472;8.166;2023-02-28T11:18:51;98869.75;;;2.62;57.67
54876;BME280;40764;48.472;8.166;2023-02-28T11:24:57;98871.06;;;2.71;57.64
54876;BME280;40764;48.472;8.166;2023-02-28T11:31:18;98869.28;;;2.95;56.37
54876;BME280;40764;48.472;8.166;2023-02-28T11:37:27;98883.84;;;2.94;56.67
54876;BME280;40764;48.472;8.166;2023-02-28T11:49:32;98882.63;;;3.20;56.81
54876;BME280;40764;48.472;8.166;2023-02-28T11:55:45;98863.91;;;2.77;57.36
54876;BME280;40764;48.472;8.166;2023-02-28T12:08:52;98854.03;;;3.01;56.25
54876;BME280;40764;48.472;8.166;2023-02-28T12:27:35;98851.31;;;3.54;54.71
54876;BME280;40764;48.472;8.166;2023-02-28T12:33:40;98846.47;;;3.68;54.39
54876;BME280;40764;48.472;8.166;2023-02-28T12:39:45;98830.91;;;4.22;53.58
54876;BME280;40764;48.472;8.166;2023-02-28T12:45:56;98836.31;;;4.22;52.19
54876;BME280;40764;48.472;8.166;2023-02-28T12:51:59;98831.72;;;4.34;51.63
54876;BME280;40764;48.472;8.166;2023-02-28T13:10:46;98815.56;;;5.13;51.59
54876;BME280;40764;48.472;8.166;2023-02-28T13:23:57;98820.41;;;4.65;51.52
54876;BME280;40764;48.472;8.166;2023-02-28T13:29:58;98821.84;;;4.85;50.86
54876;BME280;40764;48.472;8.166;2023-02-28T13:48:30;98819.19;;;5.35;49.95
54876;BME280;40764;48.472;8.166;2023-02-28T13:54:53;98816.44;;;5.85;49.04
54876;BME280;40764;48.472;8.166;2023-02-28T14:01:03;98820.28;;;5.51;50.25
54876;BME280;40764;48.472;8.166;2023-02-28T14:07:08;98819.19;;;5.35;49.05
54876;BME280;40764;48.472;8.166;2023-02-28T14:19:27;98806.75;;;5.89;48.86
54876;BME280;40764;48.472;8.166;2023-02-28T14:26:00;98808.31;;;5.69;48.36
54876;BME280;40764;48.472;8.166;2023-02-28T14:32:32;98799.22;;;5.58;48.11
54876;BME280;40764;48.472;8.166;2023-02-28T14:38:45;98795.72;;;5.96;48.88
54876;BME280;40764;48.472;8.166;2023-02-28T14:44:54;98801.09;;;6.35;48.65
54876;BME280;40764;48.472;8.166;2023-02-28T14:50:58;98806.50;;;6.35;48.12
54876;BME280;40764;48.472;8.166;2023-02-28T14:56:59;98808.84;;;6.70;47.24
54876;BME280;40764;48.472;8.166;2023-02-28T15:03:01;98804.09;;;6.60;46.51
54876;BME280;40764;48.472;8.166;2023-02-28T15:09:14;98796.25;;;6.64;47.19
54876;BME280;40764;48.472;8.166;2023-02-28T15:15:16;98811.28;;;6.44;46.34
54876;BME280;40764;48.472;8.166;2023-02-28T15:21:20;98813.03;;;6.56;46.03
54876;BME280;40764;48.472;8.166;2023-02-28T15:27:30;98813.28;;;6.10;46.60
54876;BME280;40764;48.472;8.166;2023-02-28T15:33:33;98815.81;;;6.88;46.01
54876;BME280;40764;48.472;8.166;2023-02-28T15:39:41;98806.38;;;6.68;46.38
54876;BME280;40764;48.472;8.166;2023-02-28T15:51:58;98806.47;;;7.05;45.29
54876;BME280;40764;48.472;8.166;2023-02-28T15:58:01;98809.03;;;6.90;45.77
54876;BME280;40764;48.472;8.166;2023-02-28T16:04:14;98806.13;;;6.97;45.74
54876;BME280;40764;48.472;8.166;2023-02-28T16:10:15;98808.16;;;6.84;45.90
54876;BME280;40764;48.472;8.166;2023-02-28T16:16:21;98807.59;;;5.56;48.73
54876;BME280;40764;48.472;8.166;2023-02-28T16:22:22;98815.41;;;5.19;49.11
54876;BME280;40764;48.472;8.166;2023-02-28T16:28:29;98806.28;;;5.09;49.74
54876;BME280;40764;48.472;8.166;2023-02-28T16:34:31;98817.22;;;4.69;51.00
54876;BME280;40764;48.472;8.166;2023-02-28T16:40:33;98810.44;;;4.54;51.31
54876;BME280;40764;48.472;8.166;2023-02-28T16:46:36;98819.34;;;4.38;52.06
54876;BME280;40764;48.472;8.166;2023-02-28T16:52:36;98823.34;;;4.35;51.53
54876;BME280;40764;48.472;8.166;2023-02-28T16:58:36;98822.81;;;4.10;52.97
54876;BME280;40764;48.472;8.166;2023-02-28T17:04:37;98828.38;;;3.57;54.92
54876;BME280;40764;48.472;8.166;2023-02-28T17:10:37;98824.84;;;3.68;54.30
54876;BME280;40764;48.472;8.166;2023-02-28T17:16:38;98835.53;;;3.28;56.26
54876;BME280;40764;48.472;8.166;2023-02-28T17:22:40;98851.16;;;3.26;55.41
54876;BME280;40764;48.472;8.166;2023-02-28T17:28:40;98866.94;;;2.99;56.73
54876;BME280;40764;48.472;8.166;2023-02-28T17:34:41;98870.88;;;2.85;57.34
54876;BME280;40764;48.472;8.166;2023-02-28T17:40:42;98875.66;;;2.53;58.84
54876;BME280;40764;48.472;8.166;2023-02-28T17:46:44;98879.28;;;2.28;59.72
54876;BME280;40764;48.472;8.166;2023-02-28T17:52:45;98880.84;;;1.99;60.42
54876;BME280;40764;48.472;8.166;2023-02-28T17:58:47;98889.81;;;1.93;60.93
54876;BME280;40764;48.472;8.166;2023-02-28T18:04:47;98897.56;;;1.65;62.47
54876;BME280;40764;48.472;8.166;2023-02-28T18:10:48;98894.78;;;1.53;62.49
54876;BME280;40764;48.472;8.166;2023-02-28T18:16:49;98900.97;;;1.53;63.10
54876;BME280;40764;48.472;8.166;2023-02-28T18:22:50;98901.25;;;1.14;64.52
54876;BME280;40764;48.472;8.166;2023-02-28T18:28:50;98897.31;;;1.48;63.32
54876;BME280;40764;48.472;8.166;2023-02-28T18:34:51;98888.09;;;1.31;64.06
54876;BME280;40764;48.472;8.166;2023-02-28T18:40:54;98891.97;;;1.10;64.84
54876;BME280;40764;48.472;8.166;2023-02-28T18:46:55;98905.38;;;0.91;65.33
54876;BME280;40764;48.472;8.166;2023-02-28T18:52:55;98904.31;;;0.92;65.39
54876;BME280;40764;48.472;8.166;2023-02-28T18:58:57;98890.41;;;0.64;66.89
54876;BME280;40764;48.472;8.166;2023-02-28T19:04:57;98905.19;;;0.80;66.15
54876;BME280;40764;48.472;8.166;2023-02-28T19:10:57;98891.25;;;0.51;67.79
54876;BME280;40764;48.472;8.166;2023-02-28T19:16:58;98899.59;;;0.43;67.80
54876;BME280;40764;48.472;8.166;2023-02-28T19:22:58;98892.19;;;0.32;68.61
54876;BME280;40764;48.472;8.166;2023-02-28T19:29:02;98892.63;;;0.22;69.19
54876;BME280;40764;48.472;8.166;2023-02-28T19:35:03;98902.34;;;0.23;68.58
54876;BME280;40764;48.472;8.166;2023-02-28T19:41:06;98902.72;;;0.40;68.87
54876;BME280;40764;48.472;8.166;2023-02-28T19:47:07;98912.66;;;0.33;69.34
54876;BME280;40764;48.472;8.166;2023-02-28T19:53:08;98910.06;;;0.07;70.35
54876;BME280;40764;48.472;8.166;2023-02-28T19:59:08;98907.19;;;0.02;70.54
54876;BME280;40764;48.472;8.166;2023-02-28T20:05:09;98897.84;;;-0.03;71.09
54876;BME280;40764;48.472;8.166;2023-02-28T20:11:14;98894.78;;;-0.13;71.86
54876;BME280;40764;48.472;8.166;2023-02-28T20:17:15;98891.88;;;-0.11;71.67
54876;BME280;40764;48.472;8.166;2023-02-28T20:23:16;98901.59;;;-0.04;71.41
54876;BME280;40764;48.472;8.166;2023-02-28T20:29:16;98885.06;;;-0.07;72.01
54876;BME280;40764;48.472;8.166;2023-02-28T20:35:16;98888.38;;;-0.12;72.08
54876;BME280;40764;48.472;8.166;2023-02-28T20:41:17;98891.88;;;0.02;71.33
54876;BME280;40764;48.472;8.166;2023-02-28T20:47:18;98885.66;;;-0.05;71.60
54876;BME280;40764;48.472;8.166;2023-02-28T20:53:18;98886.69;;;0.07;71.38
54876;BME280;40764;48.472;8.166;2023-02-28T20:59:19;98878.25;;;-0.29;73.40
54876;BME280;40764;48.472;8.166;2023-02-28T21:05:21;98879.66;;;-0.01;71.97
54876;BME280;40764;48.472;8.166;2023-02-28T21:11:25;98879.91;;;-0.15;72.22
54876;BME280;40764;48.472;8.166;2023-02-28T21:17:27;98882.81;;;-0.17;72.59
54876;BME280;40764;48.472;8.166;2023-02-28T21:23:27;98888.19;;;-0.37;73.66
54876;BME280;40764;48.472;8.166;2023-02-28T21:29:28;98897.72;;;-0.41;73.79
54876;BME280;40764;48.472;8.166;2023-02-28T21:35:28;98892.16;;;-0.52;74.08
54876;BME280;40764;48.472;8.166;2023-02-28T21:41:29;98889.03;;;-0.63;74.20
54876;BME280;40764;48.472;8.166;2023-02-28T21:47:29;98890.50;;;-0.73;74.67
54876;BME280;40764;48.472;8.166;2023-02-28T21:53:30;98893.81;;;-0.78;74.93
54876;BME280;40764;48.472;8.166;2023-02-28T21:59:31;98886.16;;;-0.61;75.05
54876;BME280;40764;48.472;8.166;2023-02-28T22:05:32;98883.44;;;-0.87;75.94
54876;BME280;40764;48.472;8.166;2023-02-28T22:11:34;98874.59;;;-0.75;75.89
54876;BME280;40764;48.472;8.166;2023-02-28T22:17:35;98865.72;;;-0.82;76.09
54876;BME280;40764;48.472;8.166;2023-02-28T22:23:37;98865.28;;;-1.05;76.55
54876;BME280;40764;48.472;8.166;2023-02-28T22:29:37;98862.81;;;-0.94;76.24
54876;BME280;40764;48.472;8.166;2023-02-28T22:35:38;98853.31;;;-0.83;75.88
54876;BME280;40764;48.472;8.166;2023-02-28T22:41:38;98854.34;;;-0.57;76.26
54876;BME280;40764;48.472;8.166;2023-02-28T22:47:39;98853.94;;;-0.48;74.46
54876;BME280;40764;48.472;8.166;2023-02-28T22:53:41;98857.25;;;-0.79;75.81
54876;BME280;40764;48.472;8.166;2023-02-28T22:59:42;98847.31;;;-0.91;76.16
54876;BME280;40764;48.472;8.166;2023-02-28T23:05:42;98861.78;;;-0.93;76.51
54876;BME280;40764;48.472;8.166;2023-02-28T23:11:45;98866.13;;;-0.85;76.44
54876;BME280;40764;48.472;8.166;2023-02-28T23:17:47;98865.94;;;-0.83;75.31
54876;BME280;40764;48.472;8.166;2023-02-28T23:23:48;98867.75;;;-0.90;76.36
54876;BME280;40764;48.472;8.166;2023-02-28T23:29:48;98867.13;;;-0.99;76.33
54876;BME280;40764;48.472;8.166;2023-02-28T23:35:49;98865.28;;;-0.99;76.84
54876;BME280;40764;48.472;8.166;2023-02-28T23:41:49;98864.22;;;-1.17;77.42
54876;BME280;40764;48.472;8.166;2023-02-28T23:47:50;98865.91;;;-0.90;76.61
54876;BME280;40764;48.472;8.166;2023-02-28T23:53:51;98865.06;;;-1.10;76.77
54876;BME280;40764;48.472;8.166;2023-02-28T23:59:52;98861.97;;;-1.01;77.25
